createdAt,value
2023-03-06T00:00:50.383Z,2.90
2023-03-06T00:03:18.509Z,2.80
2023-03-06T00:05:46.498Z,2.80
2023-03-06T00:08:14.293Z,2.80
2023-03-06T00:10:42.158Z,2.80
2023-03-06T00:13:14.291Z,2.70
2023-03-06T00:15:42.223Z,2.70
2023-03-06T00:18:10.446Z,2.70
2023-03-06T00:20:40.633Z,2.70
2023-03-06T00:23:08.392Z,2.70
2023-03-06T00:25:38.942Z,2.70
2023-03-06T00:28:07.198Z,2.70
2023-03-06T00:30:36.554Z,2.70
2023-03-06T00:33:04.703Z,2.70
2023-03-06T00:35:32.674Z,2.70
2023-03-06T00:38:00.483Z,2.70
2023-03-06T00:40:28.619Z,2.70
2023-03-06T00:42:56.347Z,2.60
2023-03-06T00:45:24.243Z,2.70
2023-03-06T00:47:53.401Z,2.60
2023-03-06T00:50:21.316Z,2.60
2023-03-06T00:52:49.082Z,2.60
2023-03-06T00:55:17.061Z,2.60
2023-03-06T00:57:44.830Z,2.60
2023-03-06T01:00:14.364Z,2.60
2023-03-06T01:02:42.409Z,2.60
2023-03-06T01:05:13.937Z,2.60
2023-03-06T01:07:41.715Z,2.60
2023-03-06T01:10:11.913Z,2.60
2023-03-06T01:12:39.660Z,2.60
2023-03-06T01:15:08.852Z,2.60
2023-03-06T01:17:36.628Z,2.50
2023-03-06T01:20:06.060Z,2.50
2023-03-06T01:22:35.317Z,2.50
2023-03-06T01:25:03.111Z,2.50
2023-03-06T01:27:30.925Z,2.50
2023-03-06T01:29:58.880Z,2.50
2023-03-06T01:32:26.776Z,2.50
2023-03-06T01:34:54.843Z,2.50
2023-03-06T01:37:22.590Z,2.50
2023-03-06T01:39:51.673Z,2.50
2023-03-06T01:42:19.462Z,2.50
2023-03-06T01:45:01.130Z,2.50
2023-03-06T01:47:28.965Z,2.50
2023-03-06T01:49:58.706Z,2.50
2023-03-06T01:52:30.189Z,2.50
2023-03-06T01:55:03.735Z,2.50
2023-03-06T01:57:34.884Z,2.50
2023-03-06T02:00:08.063Z,2.50
2023-03-06T02:02:36.705Z,2.50
2023-03-06T02:05:06.636Z,2.50
2023-03-06T02:07:35.261Z,2.50
2023-03-06T02:10:04.667Z,2.50
2023-03-06T02:12:32.717Z,2.50
2023-03-06T02:15:00.605Z,2.50
2023-03-06T02:17:28.762Z,2.50
2023-03-06T02:20:03.889Z,2.50
2023-03-06T02:22:38.756Z,2.50
2023-03-06T02:25:13.136Z,2.50
2023-03-06T02:27:42.526Z,2.50
2023-03-06T02:30:13.806Z,2.40
2023-03-06T02:32:41.535Z,2.40
2023-03-06T02:35:19.477Z,2.40
2023-03-06T02:37:48.220Z,2.40
2023-03-06T02:40:18.262Z,2.40
2023-03-06T02:42:52.025Z,2.40
2023-03-06T02:45:36.943Z,2.40
2023-03-06T02:48:05.083Z,2.30
2023-03-06T02:50:33.783Z,2.30
2023-03-06T02:53:01.531Z,2.30
2023-03-06T02:55:29.263Z,2.30
2023-03-06T02:57:58.318Z,2.30
2023-03-06T03:00:26.512Z,2.30
2023-03-06T03:02:54.769Z,2.30
2023-03-06T03:05:22.795Z,2.30
2023-03-06T03:07:50.522Z,2.30
2023-03-06T03:10:18.626Z,2.30
2023-03-06T03:12:46.363Z,2.30
2023-03-06T03:15:15.665Z,2.30
2023-03-06T03:17:43.529Z,2.30
2023-03-06T03:20:14.207Z,2.30
2023-03-06T03:22:42.200Z,2.20
2023-03-06T03:25:10.776Z,2.20
2023-03-06T03:27:38.478Z,2.20
2023-03-06T03:30:07.346Z,2.20
2023-03-06T03:32:36.478Z,2.20
2023-03-06T03:35:04.615Z,2.20
2023-03-06T03:37:32.617Z,2.20
2023-03-06T03:40:00.577Z,2.20
2023-03-06T03:42:28.340Z,2.10
2023-03-06T03:44:56.182Z,2.10
2023-03-06T03:47:23.914Z,2.10
2023-03-06T03:49:52.989Z,2.10
2023-03-06T03:52:20.750Z,2.10
2023-03-06T03:54:48.467Z,2.10
2023-03-06T03:57:16.479Z,2.10
2023-03-06T03:59:44.224Z,2.10
2023-03-06T04:02:12.314Z,2.10
2023-03-06T04:04:40.142Z,2.10
2023-03-06T04:07:09.647Z,2.10
2023-03-06T04:09:37.418Z,2.10
2023-03-06T04:12:05.413Z,2.10
2023-03-06T04:14:33.438Z,2.10
2023-03-06T04:17:01.241Z,2.10
2023-03-06T04:19:29.101Z,2.10
2023-03-06T04:21:56.871Z,2.10
2023-03-06T04:24:26.056Z,2.10
2023-03-06T04:26:53.805Z,2.10
2023-03-06T04:29:21.606Z,2.10
2023-03-06T04:31:49.358Z,2.10
2023-03-06T04:34:17.086Z,2.10
2023-03-06T04:36:45.947Z,2.10
2023-03-06T04:39:14.199Z,2.10
2023-03-06T04:41:43.751Z,2.10
2023-03-06T04:44:11.580Z,2.10
2023-03-06T04:46:39.344Z,2.10
2023-03-06T04:49:08.229Z,2.10
2023-03-06T04:51:36.866Z,2.10
2023-03-06T04:54:04.955Z,2.10
2023-03-06T04:56:34.308Z,2.10
2023-03-06T04:59:04.032Z,2.10
2023-03-06T05:01:31.878Z,2.20
2023-03-06T05:03:59.671Z,2.20
2023-03-06T05:06:27.454Z,2.20
2023-03-06T05:08:55.262Z,2.20
2023-03-06T05:11:23.098Z,2.20
2023-03-06T05:13:52.012Z,2.20
2023-03-06T05:16:21.116Z,2.20
2023-03-06T05:18:50.612Z,2.20
2023-03-06T05:21:18.717Z,2.20
2023-03-06T05:23:47.503Z,2.20
2023-03-06T05:26:16.116Z,2.20
2023-03-06T05:28:43.955Z,2.20
2023-03-06T05:31:11.687Z,2.20
2023-03-06T05:33:40.770Z,2.20
2023-03-06T05:36:09.571Z,2.20
2023-03-06T05:38:37.454Z,2.20
2023-03-06T05:41:05.648Z,2.20
2023-03-06T05:43:33.378Z,2.20
2023-03-06T05:46:02.738Z,2.20
2023-03-06T05:48:30.580Z,2.20
2023-03-06T05:51:00.966Z,2.20
2023-03-06T05:53:29.396Z,2.20
2023-03-06T05:55:58.227Z,2.20
2023-03-06T05:58:26.084Z,2.20
2023-03-06T06:00:53.962Z,2.20
2023-03-06T06:03:22.252Z,2.20
2023-03-06T06:05:50.144Z,2.20
2023-03-06T06:08:19.699Z,2.20
2023-03-06T06:10:47.458Z,2.10
2023-03-06T06:13:15.323Z,2.20
2023-03-06T06:15:43.064Z,2.10
2023-03-06T06:18:10.840Z,2.10
2023-03-06T06:20:38.851Z,2.10
2023-03-06T06:23:06.698Z,2.10
2023-03-06T06:25:35.767Z,2.10
2023-03-06T06:28:03.482Z,2.10
2023-03-06T06:30:31.426Z,2.10
2023-03-06T06:32:59.539Z,2.10
2023-03-06T06:35:27.485Z,2.10
2023-03-06T06:37:55.214Z,2.00
2023-03-06T06:40:24.286Z,2.00
2023-03-06T06:42:54.907Z,2.00
2023-03-06T06:45:22.621Z,2.10
2023-03-06T06:47:51.355Z,2.10
2023-03-06T06:50:19.374Z,2.10
2023-03-06T06:52:47.367Z,2.10
2023-03-06T06:55:15.251Z,2.10
2023-03-06T06:57:43.185Z,2.10
2023-03-06T07:00:15.919Z,2.20
2023-03-06T07:02:43.694Z,2.20
2023-03-06T07:05:11.966Z,2.30
2023-03-06T07:07:39.773Z,2.30
2023-03-06T07:10:12.456Z,2.30
2023-03-06T07:12:40.479Z,2.30
2023-03-06T07:15:09.436Z,2.30
2023-03-06T07:17:38.508Z,2.30
2023-03-06T07:20:08.626Z,2.30
2023-03-06T07:22:49.918Z,2.30
2023-03-06T07:25:18.710Z,2.30
2023-03-06T07:27:52.838Z,2.30
2023-03-06T07:30:22.033Z,2.30
2023-03-06T07:32:53.806Z,2.30
2023-03-06T07:35:21.715Z,2.30
2023-03-06T07:37:49.628Z,2.30
2023-03-06T07:40:19.513Z,2.30
2023-03-06T07:42:47.494Z,2.40
2023-03-06T07:45:15.288Z,2.40
2023-03-06T07:47:44.179Z,2.40
2023-03-06T07:50:14.321Z,2.40
2023-03-06T07:52:42.044Z,2.40
2023-03-06T07:55:11.062Z,2.40
2023-03-06T07:57:39.297Z,2.40
2023-03-06T08:00:10.016Z,2.50
2023-03-06T08:02:38.174Z,2.50
2023-03-06T08:05:07.569Z,2.50
2023-03-06T08:07:36.876Z,2.50
2023-03-06T08:10:05.235Z,2.60
2023-03-06T08:12:33.028Z,2.60
2023-03-06T08:15:00.764Z,2.70
2023-03-06T08:17:28.460Z,2.70
2023-03-06T08:19:56.188Z,2.70
2023-03-06T08:22:23.917Z,2.70
2023-03-06T08:24:55.610Z,2.60
2023-03-06T08:27:23.963Z,2.60
2023-03-06T08:29:51.684Z,2.60
2023-03-06T08:32:19.754Z,2.60
2023-03-06T08:34:47.457Z,2.60
2023-03-06T08:37:15.228Z,2.60
2023-03-06T08:39:43.001Z,2.60
2023-03-06T08:42:12.512Z,2.60
2023-03-06T08:44:40.352Z,2.60
2023-03-06T08:47:08.209Z,2.60
2023-03-06T08:49:38.248Z,2.60
2023-03-06T08:52:06.675Z,2.60
2023-03-06T08:54:35.732Z,2.70
2023-03-06T08:57:03.549Z,2.60
2023-03-06T08:59:32.679Z,2.70
2023-03-06T09:02:00.544Z,2.70
2023-03-06T09:04:31.134Z,2.70
2023-03-06T09:07:01.708Z,2.70
2023-03-06T09:09:29.427Z,2.70
2023-03-06T09:11:57.150Z,2.70
2023-03-06T09:14:24.883Z,2.70
2023-03-06T09:16:54.294Z,2.70
2023-03-06T09:19:22.095Z,2.70
2023-03-06T09:21:49.823Z,2.70
2023-03-06T09:24:17.589Z,2.80
2023-03-06T09:26:47.187Z,2.80
2023-03-06T09:29:17.392Z,2.80
2023-03-06T09:31:45.315Z,2.80
2023-03-06T09:34:14.581Z,2.80
2023-03-06T09:36:56.883Z,2.90
2023-03-06T09:39:27.056Z,2.90
2023-03-06T09:41:56.738Z,2.90
2023-03-06T09:44:27.606Z,2.90
2023-03-06T09:47:12.436Z,3.00
2023-03-06T09:49:57.497Z,3.00
2023-03-06T09:52:32.790Z,3.00
2023-03-06T09:55:09.565Z,3.10
2023-03-06T09:57:39.449Z,3.10
2023-03-06T10:00:14.683Z,3.10
2023-03-06T10:02:47.002Z,3.10
2023-03-06T10:05:20.943Z,3.10
2023-03-06T10:07:53.726Z,3.10
2023-03-06T10:10:24.900Z,3.10
2023-03-06T10:13:02.216Z,3.20
2023-03-06T10:15:33.538Z,3.20
2023-03-06T10:18:02.798Z,3.20
2023-03-06T10:20:42.079Z,3.20
2023-03-06T10:23:36.891Z,3.20
2023-03-06T10:26:14.865Z,3.30
2023-03-06T10:28:48.035Z,3.30
2023-03-06T10:31:21.953Z,3.30
2023-03-06T10:33:55.748Z,3.30
2023-03-06T10:36:28.001Z,3.30
2023-03-06T10:38:57.000Z,3.30
2023-03-06T10:41:28.895Z,3.30
2023-03-06T10:44:19.680Z,3.20
2023-03-06T10:46:49.900Z,3.20
2023-03-06T10:49:29.978Z,3.20
2023-03-06T10:52:01.662Z,3.20
2023-03-06T10:54:30.690Z,3.20
2023-03-06T10:56:58.755Z,3.20
2023-03-06T10:59:29.282Z,3.30
2023-03-06T11:01:59.364Z,3.30
2023-03-06T11:04:29.689Z,3.30
2023-03-06T11:07:17.466Z,3.30
2023-03-06T11:09:47.697Z,3.30
2023-03-06T11:12:23.811Z,3.20
2023-03-06T11:15:21.750Z,3.20
2023-03-06T11:17:52.516Z,3.20
2023-03-06T11:20:22.553Z,3.20
2023-03-06T11:22:55.642Z,3.20
2023-03-06T11:25:28.494Z,3.20
2023-03-06T11:28:01.297Z,3.20
2023-03-06T11:30:35.825Z,3.20
2023-03-06T11:33:09.197Z,3.20
2023-03-06T11:35:50.701Z,3.30
2023-03-06T11:38:24.864Z,3.30
2023-03-06T11:40:54.891Z,3.30
2023-03-06T11:43:26.551Z,3.40
2023-03-06T11:46:00.176Z,3.40
2023-03-06T11:48:32.746Z,3.40
2023-03-06T11:51:07.688Z,3.40
2023-03-06T11:53:40.266Z,3.40
2023-03-06T11:56:20.610Z,3.40
2023-03-06T11:59:19.510Z,3.40
2023-03-06T12:01:55.390Z,3.30
2023-03-06T12:10:06.971Z,3.30
2023-03-06T12:13:11.403Z,3.30
2023-03-06T12:15:56.905Z,3.20
2023-03-06T12:18:37.078Z,3.30
2023-03-06T12:21:11.710Z,3.20
2023-03-06T12:24:11.526Z,3.20
2023-03-06T12:27:00.909Z,3.20
2023-03-06T12:29:50.246Z,3.20
2023-03-06T12:32:32.748Z,3.20
2023-03-06T12:35:20.136Z,3.30
2023-03-06T12:37:59.885Z,3.30
2023-03-06T12:41:05.344Z,3.30
2023-03-06T12:43:55.314Z,3.30
2023-03-06T12:46:24.682Z,3.30
2023-03-06T12:49:15.644Z,3.40
2023-03-06T12:51:46.462Z,3.40
2023-03-06T12:54:15.872Z,3.40
2023-03-06T12:56:44.468Z,3.40
2023-03-06T12:59:37.080Z,3.40
2023-03-06T13:02:45.236Z,3.40
2023-03-06T13:05:56.401Z,3.40
2023-03-06T13:08:55.224Z,3.40
2023-03-06T13:12:01.311Z,3.40
2023-03-06T13:14:54.601Z,3.40
2023-03-06T13:17:44.814Z,3.40
2023-03-06T13:20:35.261Z,3.40
2023-03-06T13:23:39.182Z,3.40
2023-03-06T13:26:10.639Z,3.40
2023-03-06T13:28:46.126Z,3.40
2023-03-06T13:31:26.420Z,3.50
2023-03-06T13:33:59.819Z,3.50
2023-03-06T13:36:31.098Z,3.50
2023-03-06T13:39:08.561Z,3.60
2023-03-06T13:41:42.806Z,3.70
2023-03-06T13:44:47.198Z,3.70
2023-03-06T13:47:59.100Z,3.80
2023-03-06T13:50:40.796Z,3.80
2023-03-06T13:53:42.000Z,3.80
2023-03-06T13:56:38.220Z,3.90
2023-03-06T13:59:27.840Z,3.90
2023-03-06T14:02:09.946Z,3.90
2023-03-06T14:04:44.912Z,3.90
2023-03-06T14:07:32.105Z,4.00
2023-03-06T14:10:09.457Z,4.00
2023-03-06T14:12:40.216Z,4.00
2023-03-06T14:15:18.582Z,4.10
2023-03-06T14:17:57.099Z,4.10
2023-03-06T14:20:33.914Z,4.10
2023-03-06T14:23:24.480Z,4.10
2023-03-06T14:25:57.808Z,4.20
2023-03-06T14:28:27.513Z,4.20
2023-03-06T14:30:56.699Z,4.20
2023-03-06T14:33:44.002Z,4.30
2023-03-06T14:36:15.086Z,4.30
2023-03-06T14:38:48.261Z,4.40
2023-03-06T14:41:24.595Z,4.40
2023-03-06T14:43:52.524Z,4.40
2023-03-06T14:46:22.622Z,4.50
2023-03-06T14:48:50.759Z,4.50
2023-03-06T14:51:20.948Z,4.50
2023-03-06T14:53:51.752Z,4.50
2023-03-06T14:56:21.499Z,4.50
2023-03-06T14:58:56.251Z,4.50
2023-03-06T15:01:30.210Z,4.40
2023-03-06T15:04:00.969Z,4.40
2023-03-06T15:06:34.316Z,4.30
2023-03-06T15:09:08.374Z,4.30
2023-03-06T15:11:54.102Z,4.20
2023-03-06T15:14:27.975Z,4.20
2023-03-06T15:16:55.726Z,4.10
2023-03-06T15:19:24.182Z,4.10
2023-03-06T15:21:51.455Z,4.10
2023-03-06T15:24:36.058Z,4.00
2023-03-06T15:27:06.194Z,4.00
2023-03-06T15:29:34.745Z,3.90
2023-03-06T15:32:31.056Z,3.90
2023-03-06T15:35:28.560Z,3.90
2023-03-06T15:37:56.523Z,3.90
2023-03-06T15:40:27.800Z,3.90
2023-03-06T15:42:55.576Z,3.90
2023-03-06T15:45:25.072Z,4.00
2023-03-06T15:47:55.155Z,4.00
2023-03-06T15:50:25.595Z,4.10
2023-03-06T15:52:53.430Z,4.10
2023-03-06T15:55:23.614Z,4.10
2023-03-06T15:57:56.316Z,4.10
2023-03-06T16:00:28.638Z,4.10
2023-03-06T16:02:57.016Z,4.10
2023-03-06T16:05:25.765Z,4.00
2023-03-06T16:07:53.916Z,4.00
2023-03-06T16:10:23.504Z,4.00
2023-03-06T16:12:55.272Z,4.00
2023-03-06T16:15:25.254Z,4.00
2023-03-06T16:17:53.013Z,4.00
2023-03-06T16:20:23.378Z,4.00
2023-03-06T16:22:51.298Z,4.00
2023-03-06T16:25:19.486Z,4.00
2023-03-06T16:27:55.297Z,4.10
2023-03-06T16:30:25.861Z,4.30
2023-03-06T16:32:53.917Z,4.40
2023-03-06T16:35:21.838Z,4.30
2023-03-06T16:37:49.905Z,4.30
2023-03-06T16:40:22.285Z,4.20
2023-03-06T16:42:52.395Z,4.20
2023-03-06T16:45:21.738Z,4.10
2023-03-06T16:47:51.163Z,4.10
2023-03-06T16:50:24.474Z,4.00
2023-03-06T16:52:53.634Z,4.00
2023-03-06T16:55:21.903Z,4.00
2023-03-06T16:57:49.731Z,3.90
2023-03-06T17:00:19.505Z,3.90
2023-03-06T17:02:51.218Z,3.90
2023-03-06T17:05:20.060Z,3.80
2023-03-06T17:07:48.179Z,3.80
2023-03-06T17:10:18.788Z,3.80
2023-03-06T17:12:46.678Z,3.80
2023-03-06T17:15:14.427Z,3.80
2023-03-06T17:17:42.164Z,3.80
2023-03-06T17:20:13.517Z,3.70
2023-03-06T17:22:42.060Z,3.70
2023-03-06T17:25:10.563Z,3.70
2023-03-06T17:27:39.168Z,3.70
2023-03-06T17:30:08.484Z,3.70
2023-03-06T17:32:38.100Z,3.70
2023-03-06T17:35:06.751Z,3.70
2023-03-06T17:37:35.888Z,3.70
2023-03-06T17:40:03.693Z,3.70
2023-03-06T17:42:31.424Z,3.60
2023-03-06T17:44:59.200Z,3.60
2023-03-06T17:47:26.941Z,3.60
2023-03-06T17:49:54.704Z,3.60
2023-03-06T17:52:22.445Z,3.50
2023-03-06T17:54:51.725Z,3.50
2023-03-06T17:57:19.542Z,3.50
2023-03-06T17:59:48.643Z,3.50
2023-03-06T18:02:16.928Z,3.40
2023-03-06T18:04:44.711Z,3.40
2023-03-06T18:07:12.504Z,3.40
2023-03-06T18:09:42.609Z,3.40
2023-03-06T18:12:11.872Z,3.30
2023-03-06T18:14:39.611Z,3.30
2023-03-06T18:17:07.433Z,3.30
2023-03-06T18:19:35.206Z,3.30
2023-03-06T18:22:03.050Z,3.20
2023-03-06T18:24:30.817Z,3.20
2023-03-06T18:26:58.574Z,3.10
2023-03-06T18:29:27.648Z,3.10
2023-03-06T18:31:56.761Z,3.10
2023-03-06T18:34:24.532Z,3.10
2023-03-06T18:36:52.809Z,3.00
2023-03-06T18:39:21.311Z,3.00
2023-03-06T18:41:49.293Z,3.00
2023-03-06T18:44:17.684Z,3.00
2023-03-06T18:46:46.830Z,3.00
2023-03-06T18:49:16.109Z,2.90
2023-03-06T18:51:43.997Z,3.00
2023-03-06T18:54:12.288Z,2.90
2023-03-06T18:56:43.929Z,2.90
2023-03-06T18:59:16.089Z,2.90
2023-03-06T19:01:47.153Z,2.90
2023-03-06T19:04:15.002Z,2.90
2023-03-06T19:06:42.765Z,2.90
2023-03-06T19:09:11.247Z,2.90
2023-03-06T19:11:39.039Z,2.90
2023-03-06T19:14:07.124Z,2.90
2023-03-06T19:16:34.957Z,2.90
2023-03-06T19:19:04.209Z,2.90
2023-03-06T19:21:32.048Z,2.90
2023-03-06T19:23:59.925Z,2.90
2023-03-06T19:26:27.988Z,2.90
2023-03-06T19:28:55.764Z,2.90
2023-03-06T19:31:25.822Z,2.90
2023-03-06T19:33:56.442Z,2.90
2023-03-06T19:36:28.654Z,2.90
2023-03-06T19:38:57.357Z,2.90
2023-03-06T19:41:25.737Z,2.90
2023-03-06T19:43:54.983Z,2.90
2023-03-06T19:46:23.781Z,2.90
2023-03-06T19:48:55.942Z,2.90
2023-03-06T19:51:25.413Z,2.90
2023-03-06T19:53:53.673Z,2.90
2023-03-06T19:56:25.898Z,2.90
2023-03-06T19:58:53.787Z,2.90
2023-03-06T20:01:23.545Z,2.90
2023-03-06T20:03:56.043Z,2.90
2023-03-06T20:06:26.667Z,2.90
2023-03-06T20:08:54.509Z,2.90
2023-03-06T20:11:24.147Z,2.90
2023-03-06T20:13:52.649Z,2.90
2023-03-06T20:16:20.960Z,2.90
2023-03-06T20:18:48.845Z,2.90
2023-03-06T20:21:16.920Z,2.90
2023-03-06T20:23:46.204Z,2.90
2023-03-06T20:26:15.079Z,2.90
2023-03-06T20:28:43.588Z,2.90
2023-03-06T20:31:13.537Z,2.90
2023-03-06T20:33:41.372Z,2.90
2023-03-06T20:36:13.354Z,2.90
2023-03-06T20:38:41.284Z,2.90
2023-03-06T20:41:15.196Z,2.90
2023-03-06T20:43:43.338Z,2.90
2023-03-06T20:46:12.004Z,2.90
2023-03-06T20:48:40.204Z,2.80
2023-03-06T20:51:10.859Z,2.90
2023-03-06T20:53:38.622Z,2.90
2023-03-06T20:56:07.358Z,2.80
2023-03-06T20:58:36.461Z,2.80
2023-03-06T21:01:04.281Z,2.80
2023-03-06T21:03:32.109Z,2.80
2023-03-06T21:05:59.848Z,2.80
2023-03-06T21:08:27.636Z,2.80
2023-03-06T21:10:55.431Z,2.70
2023-03-06T21:13:23.172Z,2.70
2023-03-06T21:15:52.460Z,2.70
2023-03-06T21:18:20.240Z,2.60
2023-03-06T21:20:48.112Z,2.60
2023-03-06T21:23:16.060Z,2.60
2023-03-06T21:25:48.528Z,2.60
2023-03-06T21:28:16.493Z,2.50
2023-03-06T21:30:45.213Z,2.50
2023-03-06T21:33:15.986Z,2.50
2023-03-06T21:35:45.142Z,2.40
2023-03-06T21:38:14.257Z,2.30
2023-03-06T21:40:44.559Z,2.30
2023-03-06T21:43:12.756Z,2.20
2023-03-06T21:45:44.557Z,2.20
2023-03-06T21:48:14.171Z,2.20
2023-03-06T21:50:42.002Z,2.20
2023-03-06T21:53:10.330Z,2.20
2023-03-06T21:55:40.283Z,2.10
2023-03-06T21:58:08.244Z,2.10
2023-03-06T22:00:36.719Z,2.10
2023-03-06T22:03:04.748Z,2.10
2023-03-06T22:05:33.863Z,2.10
2023-03-06T22:08:01.702Z,2.00
2023-03-06T22:10:29.444Z,2.10
2023-03-06T22:12:57.220Z,2.00
2023-03-06T22:15:25.052Z,2.00
2023-03-06T22:17:53.590Z,2.00
2023-03-06T22:20:21.416Z,2.00
2023-03-06T22:22:50.661Z,2.00
2023-03-06T22:25:18.412Z,1.90
2023-03-06T22:27:46.202Z,1.90
2023-03-06T22:30:14.240Z,1.90
2023-03-06T22:32:42.013Z,1.90
2023-03-06T22:35:10.386Z,1.80
2023-03-06T22:37:38.109Z,1.80
2023-03-06T22:40:08.308Z,1.80
2023-03-06T22:42:36.035Z,1.80
2023-03-06T22:45:03.995Z,1.80
2023-03-06T22:47:31.740Z,1.80
2023-03-06T22:49:59.489Z,1.70
2023-03-06T22:52:27.229Z,1.70
2023-03-06T22:54:55.001Z,1.70
2023-03-06T22:57:24.146Z,1.70
2023-03-06T22:59:51.954Z,1.70
2023-03-06T23:02:20.173Z,1.70
2023-03-06T23:04:52.026Z,1.70
2023-03-06T23:07:20.171Z,1.70
2023-03-06T23:09:48.280Z,1.60
2023-03-06T23:12:16.098Z,1.60
2023-03-06T23:14:49.465Z,1.60
2023-03-06T23:17:17.413Z,1.60
2023-03-06T23:19:45.587Z,1.60
2023-03-06T23:22:14.240Z,1.60
2023-03-06T23:24:42.191Z,1.60
2023-03-06T23:27:09.954Z,1.60
2023-03-06T23:29:37.689Z,1.60
2023-03-06T23:32:07.642Z,1.60
2023-03-06T23:34:35.435Z,1.50
2023-03-06T23:37:03.222Z,1.50
2023-03-06T23:39:31.065Z,1.60
2023-03-06T23:41:58.848Z,1.50
2023-03-06T23:44:26.589Z,1.50
2023-03-06T23:46:54.312Z,1.50
2023-03-06T23:49:23.437Z,1.50
2023-03-06T23:51:51.216Z,1.50
2023-03-06T23:54:19.132Z,1.50
2023-03-06T23:56:46.873Z,1.50
2023-03-06T23:59:14.652Z,1.50
